createdAt,value
2018-04-12T00:00:08.603Z,71.12
2018-04-12T00:01:11.152Z,68.95
2018-04-12T00:02:14.425Z,64.35
2018-04-12T00:03:17.695Z,72.80
2018-04-12T00:04:20.197Z,65.90
2018-04-12T00:05:23.531Z,64.10
2018-04-12T00:06:26.056Z,71.15
2018-04-12T00:07:29.314Z,62.22
2018-04-12T00:08:31.833Z,64.40
2018-04-12T00:09:34.356Z,65.68
2018-04-12T00:10:36.872Z,63.03
2018-04-12T00:11:39.404Z,59.28
2018-04-12T00:12:41.916Z,63.17
2018-04-12T00:13:44.435Z,69.20
2018-04-12T00:14:46.963Z,64.65
2018-04-12T00:15:49.452Z,62.95
2018-04-12T00:16:51.988Z,63.90
2018-04-12T00:17:54.490Z,68.55
2018-04-12T00:18:56.996Z,63.70
2018-04-12T00:19:59.518Z,58.97
2018-04-12T00:21:02.072Z,62.90
2018-04-12T00:22:04.815Z,60.15
2018-04-12T00:23:08.715Z,68.32
2018-04-12T00:24:11.242Z,60.15
2018-04-12T00:25:13.749Z,61.33
2018-04-12T00:26:16.279Z,59.08
2018-04-12T00:27:18.827Z,64.32
2018-04-12T00:28:22.098Z,62.35
2018-04-12T00:29:25.369Z,61.15
2018-04-12T00:30:27.873Z,62.80
2018-04-12T00:31:30.376Z,62.72
2018-04-12T00:32:32.904Z,59.00
2018-04-12T00:33:36.198Z,57.17
2018-04-12T00:34:39.488Z,55.30
2018-04-12T00:35:42.812Z,57.03
2018-04-12T00:36:45.322Z,62.17
2018-04-12T00:37:47.827Z,64.62
2018-04-12T00:38:50.434Z,57.47
2018-04-12T00:39:52.940Z,63.70
2018-04-12T00:40:55.428Z,61.47
2018-04-12T00:41:58.716Z,61.08
2018-04-12T00:43:02.005Z,58.30
2018-04-12T00:44:05.336Z,64.68
2018-04-12T00:45:07.999Z,64.65
2018-04-12T00:46:10.535Z,54.72
2018-04-12T00:47:13.820Z,61.13
2018-04-12T00:48:17.077Z,62.40
2018-04-12T00:49:19.580Z,61.35
2018-04-12T00:50:22.861Z,64.03
2018-04-12T00:51:26.119Z,59.65
2018-04-12T00:52:28.640Z,60.58
2018-04-12T00:53:43.073Z,60.22
2018-04-12T00:54:46.338Z,69.95
2018-04-12T00:55:48.858Z,60.38
2018-04-12T00:56:51.388Z,75.05
2018-04-12T00:57:53.879Z,69.70
2018-04-12T00:58:57.171Z,58.53
2018-04-12T01:00:00.445Z,58.05
2018-04-12T01:01:03.740Z,61.33
2018-04-12T01:02:06.254Z,64.80
2018-04-12T01:03:08.791Z,59.03
2018-04-12T01:04:12.044Z,65.18
2018-04-12T01:05:14.574Z,59.33
2018-04-12T01:06:17.079Z,69.78
2018-04-12T01:07:19.588Z,67.50
2018-04-12T01:08:22.877Z,62.13
2018-04-12T01:09:26.150Z,64.18
2018-04-12T01:10:28.671Z,59.80
2018-04-12T01:11:31.156Z,61.15
2018-04-12T01:12:33.653Z,63.30
2018-04-12T01:13:36.168Z,64.20
2018-04-12T01:14:38.678Z,61.63
2018-04-12T01:15:41.217Z,71.30
2018-04-12T01:16:43.712Z,60.22
2018-04-12T01:17:46.240Z,60.58
2018-04-12T01:18:48.777Z,66.50
2018-04-12T01:19:52.054Z,60.15
2018-04-12T01:20:54.551Z,58.38
2018-04-12T01:21:57.833Z,69.78
2018-04-12T01:23:00.337Z,63.80
2018-04-12T01:24:03.227Z,61.20
2018-04-12T01:25:05.785Z,72.80
2018-04-12T01:26:08.300Z,64.47
2018-04-12T01:27:10.832Z,64.40
2018-04-12T01:28:13.325Z,70.60
2018-04-12T01:29:15.827Z,66.10
2018-04-12T01:30:19.096Z,62.00
2018-04-12T01:31:21.585Z,63.03
2018-04-12T01:32:24.176Z,76.65
2018-04-12T01:33:27.444Z,68.22
2018-04-12T01:34:29.944Z,66.75
2018-04-12T01:35:32.453Z,63.30
2018-04-12T01:36:34.955Z,58.45
2018-04-12T01:37:38.248Z,65.20
2018-04-12T01:38:42.247Z,68.03
2018-04-12T01:39:45.528Z,67.28
2018-04-12T01:40:48.013Z,58.87
2018-04-12T01:41:50.510Z,69.10
2018-04-12T01:42:53.016Z,61.72
2018-04-12T01:43:55.526Z,62.30
2018-04-12T01:44:58.077Z,60.20
2018-04-12T01:46:00.608Z,75.40
2018-04-12T01:47:03.131Z,66.95
2018-04-12T01:48:05.631Z,65.32
2018-04-12T01:49:08.893Z,64.47
2018-04-12T01:50:11.431Z,63.92
2018-04-12T01:51:13.940Z,66.35
2018-04-12T01:52:17.196Z,75.35
2018-04-12T01:53:19.693Z,71.32
2018-04-12T01:54:23.701Z,65.62
2018-04-12T01:55:26.223Z,73.10
2018-04-12T01:56:28.729Z,72.40
2018-04-12T01:57:31.226Z,66.85
2018-04-12T01:58:33.725Z,69.47
2018-04-12T01:59:36.213Z,71.70
2018-04-12T02:00:38.731Z,71.60
2018-04-12T02:01:42.014Z,73.87
2018-04-12T02:02:45.274Z,69.70
2018-04-12T02:03:47.806Z,72.45
2018-04-12T02:04:50.300Z,68.00
2018-04-12T02:05:52.844Z,69.47
2018-04-12T02:06:55.344Z,73.30
2018-04-12T02:07:57.854Z,76.93
2018-04-12T02:09:01.118Z,70.97
2018-04-12T02:10:03.677Z,74.20
2018-04-12T02:11:06.218Z,72.03
2018-04-12T02:12:08.716Z,73.97
2018-04-12T02:13:11.206Z,78.55
2018-04-12T02:14:13.709Z,70.37
2018-04-12T02:15:16.224Z,73.72
2018-04-12T02:16:18.749Z,79.18
2018-04-12T02:17:22.015Z,75.12
2018-04-12T02:18:24.541Z,73.68
2018-04-12T02:19:27.042Z,71.87
2018-04-12T02:20:30.306Z,73.82
2018-04-12T02:21:32.824Z,81.65
2018-04-12T02:22:36.133Z,75.75
2018-04-12T02:23:38.634Z,84.75
2018-04-12T02:24:41.127Z,77.43
2018-04-12T02:25:44.419Z,76.62
2018-04-12T02:26:46.936Z,70.50
2018-04-12T02:27:49.422Z,81.00
2018-04-12T02:28:51.946Z,81.93
2018-04-12T02:29:54.424Z,80.60
2018-04-12T02:30:57.695Z,82.05
2018-04-12T02:32:00.991Z,76.47
2018-04-12T02:33:03.500Z,76.57
2018-04-12T02:34:06.005Z,86.18
2018-04-12T02:35:08.553Z,83.72
2018-04-12T02:36:11.152Z,82.60
2018-04-12T02:37:13.681Z,85.90
2018-04-12T02:38:16.232Z,77.82
2018-04-12T02:39:19.777Z,77.93
2018-04-12T02:40:22.281Z,83.30
2018-04-12T02:41:24.779Z,82.35
2018-04-12T02:42:27.297Z,77.30
2018-04-12T02:43:29.800Z,79.22
2018-04-12T02:44:33.080Z,82.97
2018-04-12T02:45:36.346Z,82.82
2018-04-12T02:46:38.854Z,79.20
2018-04-12T02:47:42.139Z,81.78
2018-04-12T02:48:45.403Z,82.25
2018-04-12T02:49:47.928Z,82.05
2018-04-12T02:50:50.434Z,79.95
2018-04-12T02:51:52.920Z,87.68
2018-04-12T02:52:56.217Z,86.12
2018-04-12T02:53:59.486Z,80.40
2018-04-12T02:55:02.015Z,79.10
2018-04-12T02:56:04.522Z,84.37
2018-04-12T02:57:07.019Z,87.57
2018-04-12T02:58:09.539Z,84.62
2018-04-12T02:59:12.049Z,87.07
2018-04-12T03:00:14.542Z,90.53
2018-04-12T03:01:17.045Z,82.03
2018-04-12T03:02:19.540Z,83.97
2018-04-12T03:03:22.057Z,79.85
2018-04-12T03:04:25.359Z,89.20
2018-04-12T03:05:27.848Z,86.18
2018-04-12T03:06:30.359Z,81.97
2018-04-12T03:07:32.876Z,74.97
2018-04-12T03:08:35.400Z,85.50
2018-04-12T03:09:37.906Z,81.43
2018-04-12T03:10:40.411Z,86.60
2018-04-12T03:11:42.900Z,94.20
2018-04-12T03:12:46.213Z,98.50
2018-04-12T03:13:49.477Z,88.37
2018-04-12T03:14:52.036Z,86.20
2018-04-12T03:15:54.521Z,85.78
2018-04-12T03:16:57.775Z,89.03
2018-04-12T03:18:00.279Z,91.12
2018-04-12T03:19:02.807Z,88.97
2018-04-12T03:20:05.667Z,82.37
2018-04-12T03:21:08.184Z,92.85
2018-04-12T03:22:10.734Z,82.57
2018-04-12T03:23:13.243Z,98.53
2018-04-12T03:24:15.752Z,88.87
2018-04-12T03:25:18.238Z,78.72
2018-04-12T03:26:20.737Z,81.85
2018-04-12T03:27:23.222Z,97.12
2018-04-12T03:28:26.490Z,97.32
2018-04-12T03:29:28.995Z,86.28
2018-04-12T03:30:32.584Z,90.82
2018-04-12T03:31:35.096Z,100.20
2018-04-12T03:32:37.612Z,92.57
2018-04-12T03:33:40.884Z,97.10
2018-04-12T03:34:43.389Z,101.75
2018-04-12T03:35:46.646Z,98.65
2018-04-12T03:36:49.148Z,98.55
2018-04-12T03:37:52.415Z,98.55
2018-04-12T03:38:54.918Z,95.50
2018-04-12T03:39:58.204Z,100.85
2018-04-12T03:41:01.461Z,94.13
2018-04-12T03:42:04.024Z,94.87
2018-04-12T03:43:06.514Z,98.43
2018-04-12T03:44:09.033Z,107.55
2018-04-12T03:45:11.538Z,99.00
2018-04-12T03:46:14.026Z,96.65
2018-04-12T03:47:17.300Z,97.75
2018-04-12T03:48:20.585Z,98.70
2018-04-12T03:49:23.088Z,100.53
2018-04-12T03:50:25.605Z,102.70
2018-04-12T03:51:28.117Z,101.90
2018-04-12T03:52:31.386Z,104.53
2018-04-12T03:53:33.954Z,108.63
2018-04-12T03:54:36.461Z,108.60
2018-04-12T03:55:39.160Z,105.37
2018-04-12T03:56:41.680Z,114.28
2018-04-12T03:57:46.585Z,109.57
2018-04-12T03:58:52.579Z,109.80
2018-04-12T03:59:55.879Z,108.78
2018-04-12T04:00:59.144Z,112.70
2018-04-12T04:02:01.647Z,107.18
2018-04-12T04:03:04.155Z,106.15
2018-04-12T04:04:06.655Z,108.37
2018-04-12T04:05:09.162Z,105.50
2018-04-12T04:06:11.896Z,99.18
2018-04-12T04:07:14.399Z,103.80
2018-04-12T04:08:16.894Z,117.87
2018-04-12T04:09:19.426Z,103.50
2018-04-12T04:10:22.687Z,100.07
2018-04-12T04:11:25.212Z,110.85
2018-04-12T04:12:27.718Z,122.40
2018-04-12T04:13:30.211Z,105.45
2018-04-12T04:14:41.713Z,110.53
2018-04-12T04:15:56.150Z,109.87
2018-04-12T04:17:11.307Z,108.57
2018-04-12T04:18:25.675Z,110.55
2018-04-12T04:19:40.656Z,115.62
2018-04-12T04:20:55.303Z,117.32
2018-04-12T04:21:57.826Z,119.85
2018-04-12T04:23:00.321Z,110.55
2018-04-12T04:24:03.600Z,124.65
2018-04-12T04:25:06.117Z,120.87
2018-04-12T04:26:08.637Z,111.85
2018-04-12T04:27:11.280Z,124.93
2018-04-12T04:28:13.807Z,116.57
2018-04-12T04:29:17.061Z,120.20
2018-04-12T04:30:19.645Z,126.00
2018-04-12T04:31:22.938Z,120.25
2018-04-12T04:32:25.464Z,103.95
2018-04-12T04:33:27.975Z,111.72
2018-04-12T04:34:30.495Z,117.40
2018-04-12T04:35:33.024Z,118.15
2018-04-12T04:36:36.316Z,113.22
2018-04-12T04:37:38.831Z,107.80
2018-04-12T04:38:41.359Z,112.20
2018-04-12T04:39:44.635Z,121.68
2018-04-12T04:40:47.135Z,112.50
2018-04-12T04:41:50.442Z,108.20
2018-04-12T04:42:53.001Z,109.97
2018-04-12T04:43:55.592Z,119.80
2018-04-12T04:44:58.107Z,117.97
2018-04-12T04:46:00.618Z,113.12
2018-04-12T04:47:03.119Z,113.37
2018-04-12T04:48:05.638Z,111.53
2018-04-12T04:49:08.914Z,111.53
2018-04-12T04:50:11.533Z,118.50
2018-04-12T04:51:14.108Z,115.25
2018-04-12T04:52:16.634Z,106.28
2018-04-12T04:53:19.894Z,100.40
2018-04-12T04:54:22.449Z,109.57
2018-04-12T04:55:24.994Z,100.38
2018-04-12T04:56:27.596Z,96.75
2018-04-12T04:57:30.119Z,102.20
2018-04-12T04:58:33.393Z,108.82
2018-04-12T04:59:36.660Z,105.37
2018-04-12T05:00:39.355Z,112.47
2018-04-12T05:01:42.652Z,105.53
2018-04-12T05:02:45.907Z,102.80
2018-04-12T05:03:48.420Z,107.93
2018-04-12T05:04:50.947Z,104.93
2018-04-12T05:05:53.714Z,117.03
2018-04-12T05:06:56.226Z,109.70
2018-04-12T05:07:59.553Z,106.05
2018-04-12T05:09:02.051Z,107.60
2018-04-12T05:10:04.588Z,104.20
2018-04-12T05:11:07.090Z,101.35
2018-04-12T05:12:09.653Z,95.12
2018-04-12T05:13:12.217Z,104.68
2018-04-12T05:14:14.770Z,97.40
2018-04-12T05:15:17.302Z,103.75
2018-04-12T05:16:19.794Z,102.68
2018-04-12T05:17:22.322Z,93.80
2018-04-12T05:18:24.834Z,106.75
2018-04-12T05:19:27.342Z,102.47
2018-04-12T05:20:29.875Z,102.32
2018-04-12T05:21:32.375Z,107.32
2018-04-12T05:22:34.893Z,95.22
2018-04-12T05:23:37.409Z,94.72
2018-04-12T05:24:39.916Z,97.78
2018-04-12T05:25:42.422Z,106.35
2018-04-12T05:26:44.985Z,105.80
2018-04-12T05:27:48.315Z,98.75
2018-04-12T05:28:51.559Z,93.60
2018-04-12T05:29:54.171Z,100.97
2018-04-12T05:30:56.705Z,91.70
2018-04-12T05:31:59.989Z,95.57
2018-04-12T05:33:02.476Z,92.85
2018-04-12T05:34:06.024Z,94.95
2018-04-12T05:35:08.576Z,104.93
2018-04-12T05:36:11.169Z,93.35
2018-04-12T05:37:13.677Z,93.35
2018-04-12T05:38:16.998Z,91.57
2018-04-12T05:39:19.525Z,93.68
2018-04-12T05:40:22.024Z,97.43
2018-04-12T05:41:24.606Z,89.32
2018-04-12T05:42:27.113Z,91.72
2018-04-12T05:43:29.631Z,91.82
2018-04-12T05:44:32.914Z,100.35
2018-04-12T05:45:36.177Z,100.00
2018-04-12T05:46:38.688Z,100.90
2018-04-12T05:47:41.216Z,93.82
2018-04-12T05:48:43.717Z,104.50
2018-04-12T05:49:46.225Z,101.45
2018-04-12T05:50:48.756Z,85.80
2018-04-12T05:51:51.262Z,92.82
2018-04-12T05:52:53.842Z,82.07
2018-04-12T05:53:57.106Z,102.82
2018-04-12T05:54:59.634Z,91.12
2018-04-12T05:56:02.132Z,87.43
2018-04-12T05:57:04.636Z,91.57
2018-04-12T05:58:07.152Z,85.10
2018-04-12T05:59:10.524Z,89.85
2018-04-12T06:00:13.183Z,86.07
2018-04-12T06:01:15.693Z,82.82
2018-04-12T06:02:18.954Z,77.87
2018-04-12T06:03:22.982Z,84.72
2018-04-12T06:04:26.254Z,82.65
2018-04-12T06:05:28.784Z,79.80
2018-04-12T06:06:31.286Z,84.22
2018-04-12T06:07:33.783Z,85.30
2018-04-12T06:08:37.086Z,76.72
2018-04-12T06:09:39.588Z,73.43
2018-04-12T06:10:42.132Z,79.22
2018-04-12T06:11:44.630Z,80.82
2018-04-12T06:12:47.145Z,76.95
2018-04-12T06:13:50.411Z,78.35
2018-04-12T06:14:52.940Z,77.25
2018-04-12T06:15:55.955Z,75.87
2018-04-12T06:16:58.473Z,77.95
2018-04-12T06:18:01.759Z,75.30
2018-04-12T06:19:04.284Z,69.85
2018-04-12T06:20:06.820Z,79.50
2018-04-12T06:21:09.340Z,74.75
2018-04-12T06:22:12.105Z,78.22
2018-04-12T06:23:14.636Z,76.70
2018-04-12T06:24:17.136Z,80.12
2018-04-12T06:25:19.692Z,71.78
2018-04-12T06:26:22.234Z,77.70
2018-04-12T06:27:25.635Z,72.22
2018-04-12T06:28:28.225Z,73.62
2018-04-12T06:29:31.458Z,72.93
2018-04-12T06:30:33.955Z,73.32
2018-04-12T06:31:36.547Z,71.05
2018-04-12T06:32:39.062Z,68.95
2018-04-12T06:33:41.558Z,77.65
2018-04-12T06:34:44.827Z,75.60
2018-04-12T06:35:47.338Z,72.80
2018-04-12T06:36:49.875Z,71.55
2018-04-12T06:37:53.193Z,73.43
2018-04-12T06:38:55.686Z,69.20
2018-04-12T06:39:58.201Z,71.72
2018-04-12T06:41:00.710Z,69.65
2018-04-12T06:42:03.999Z,70.00
2018-04-12T06:43:06.507Z,73.40
2018-04-12T06:44:09.145Z,78.12
2018-04-12T06:45:11.826Z,71.10
2018-04-12T06:46:14.358Z,74.90
2018-04-12T06:47:17.654Z,76.53
2018-04-12T06:48:20.925Z,76.20
2018-04-12T06:49:23.430Z,69.97
2018-04-12T06:50:26.071Z,77.32
2018-04-12T06:51:28.661Z,78.28
2018-04-12T06:52:31.965Z,84.87
2018-04-12T06:53:34.455Z,75.55
2018-04-12T06:54:37.014Z,73.28
2018-04-12T06:55:39.525Z,63.65
2018-04-12T06:56:42.808Z,68.78
2018-04-12T06:57:45.328Z,69.80
2018-04-12T06:58:47.835Z,70.25
2018-04-12T06:59:50.328Z,68.60
2018-04-12T07:00:52.887Z,69.12
2018-04-12T07:01:55.412Z,67.00
2018-04-12T07:02:57.967Z,72.30
2018-04-12T07:04:01.264Z,65.68
2018-04-12T07:05:04.539Z,66.07
2018-04-12T07:06:07.825Z,68.00
2018-04-12T07:07:11.273Z,67.47
2018-04-12T07:08:13.800Z,77.65
2018-04-12T07:09:16.305Z,61.80
2018-04-12T07:10:18.790Z,65.20
2018-04-12T07:11:21.294Z,65.50
2018-04-12T07:12:24.561Z,68.50
2018-04-12T07:13:27.088Z,68.50
2018-04-12T07:14:29.671Z,63.53
2018-04-12T07:15:32.189Z,65.12
2018-04-12T07:16:35.460Z,67.72
2018-04-12T07:17:37.968Z,68.80
2018-04-12T07:18:41.243Z,63.20
2018-04-12T07:19:44.546Z,69.25
2018-04-12T07:20:47.832Z,69.65
2018-04-12T07:21:51.117Z,67.22
2018-04-12T07:22:54.411Z,64.28
2018-04-12T07:23:57.776Z,61.15
2018-04-12T07:25:00.290Z,66.28
2018-04-12T07:26:02.802Z,62.05
2018-04-12T07:27:05.321Z,59.75
2018-04-12T07:28:07.829Z,57.45
2018-04-12T07:29:10.485Z,62.00
2018-04-12T07:30:13.047Z,61.28
2018-04-12T07:31:15.550Z,61.63
2018-04-12T07:32:18.112Z,58.95
2018-04-12T07:33:20.600Z,53.17
2018-04-12T07:34:23.120Z,52.10
2018-04-12T07:35:25.668Z,53.47
2018-04-12T07:36:29.007Z,56.08
2018-04-12T07:37:31.513Z,62.72
2018-04-12T07:38:34.020Z,58.87
2018-04-12T07:39:36.534Z,51.15
2018-04-12T07:40:39.100Z,52.90
2018-04-12T07:41:41.594Z,64.18
2018-04-12T07:42:44.102Z,53.55
2018-04-12T07:43:46.648Z,60.17
2018-04-12T07:44:49.944Z,58.87
2018-04-12T07:45:53.370Z,55.92
2018-04-12T07:46:55.906Z,53.63
2018-04-12T07:47:59.214Z,58.42
2018-04-12T07:49:01.712Z,53.08
2018-04-12T07:50:04.224Z,57.58
2018-04-12T07:51:07.541Z,50.88
2018-04-12T07:52:10.307Z,56.00
2018-04-12T07:53:13.578Z,51.70
2018-04-12T07:54:16.870Z,55.30
2018-04-12T07:55:19.412Z,56.33
2018-04-12T07:56:21.916Z,52.72
2018-04-12T07:57:25.196Z,51.37
2018-04-12T07:58:27.709Z,55.12
2018-04-12T07:59:30.223Z,59.83
2018-04-12T08:00:32.759Z,62.08
2018-04-12T08:01:35.281Z,58.15
2018-04-12T08:02:37.781Z,54.92
2018-04-12T08:03:40.291Z,48.08
2018-04-12T08:04:42.805Z,57.53
2018-04-12T08:05:46.087Z,53.95
2018-04-12T08:06:49.417Z,51.58
2018-04-12T08:07:51.916Z,49.53
2018-04-12T08:08:54.422Z,56.53
2018-04-12T08:09:57.713Z,53.97
2018-04-12T08:11:00.991Z,56.25
2018-04-12T08:12:04.285Z,57.22
2018-04-12T08:13:07.575Z,54.85
2018-04-12T08:14:10.938Z,56.95
2018-04-12T08:15:13.517Z,55.30
2018-04-12T08:16:16.112Z,52.22
2018-04-12T08:17:18.785Z,52.92
2018-04-12T08:18:22.091Z,51.53
2018-04-12T08:19:24.593Z,51.22
2018-04-12T08:20:27.104Z,55.10
2018-04-12T08:21:30.400Z,52.05
2018-04-12T08:22:33.670Z,46.60
2018-04-12T08:23:36.224Z,49.95
2018-04-12T08:24:38.732Z,47.05
2018-04-12T08:25:41.995Z,50.05
2018-04-12T08:26:44.530Z,57.13
2018-04-12T08:27:47.071Z,51.60
2018-04-12T08:28:49.584Z,54.65
2018-04-12T08:29:52.111Z,46.28
2018-04-12T08:30:55.432Z,53.25
2018-04-12T08:31:57.972Z,50.40
2018-04-12T08:33:01.245Z,45.70
2018-04-12T08:34:04.513Z,54.03
2018-04-12T08:35:07.024Z,46.58
2018-04-12T08:36:09.594Z,44.78
2018-04-12T08:37:12.282Z,49.70
2018-04-12T08:38:14.793Z,46.00
2018-04-12T08:39:17.352Z,48.83
2018-04-12T08:40:19.863Z,49.83
2018-04-12T08:41:23.674Z,50.97
2018-04-12T08:42:26.937Z,53.15
2018-04-12T08:43:29.451Z,52.10
2018-04-12T08:44:31.963Z,51.97
2018-04-12T08:45:34.470Z,44.45
2018-04-12T08:46:37.023Z,47.75
2018-04-12T08:47:39.598Z,49.15
2018-04-12T08:48:42.922Z,51.75
2018-04-12T08:49:45.430Z,53.35
2018-04-12T08:50:47.971Z,46.45
2018-04-12T08:51:50.504Z,43.50
2018-04-12T08:52:53.072Z,57.92
2018-04-12T08:53:55.592Z,54.75
2018-04-12T08:54:58.145Z,49.25
2018-04-12T08:56:00.700Z,51.40
2018-04-12T08:57:03.990Z,49.47
2018-04-12T08:58:07.436Z,46.97
2018-04-12T08:59:10.173Z,44.35
2018-04-12T09:00:12.740Z,48.28
2018-04-12T09:01:15.259Z,52.62
2018-04-12T09:02:17.768Z,48.33
2018-04-12T09:03:21.068Z,52.40
2018-04-12T09:04:23.609Z,50.65
2018-04-12T09:05:26.138Z,49.35
2018-04-12T09:06:28.635Z,56.58
2018-04-12T09:07:31.162Z,45.05
2018-04-12T09:08:33.675Z,49.42
2018-04-12T09:09:36.174Z,40.88
2018-04-12T09:10:39.514Z,41.45
2018-04-12T09:11:42.055Z,49.25
2018-04-12T09:12:44.652Z,49.30
2018-04-12T09:13:47.189Z,52.60
2018-04-12T09:14:49.726Z,47.20
2018-04-12T09:15:52.285Z,43.28
2018-04-12T09:16:54.784Z,43.95
2018-04-12T09:17:58.125Z,37.75
2018-04-12T09:19:01.380Z,44.15
2018-04-12T09:20:04.687Z,43.35
2018-04-12T09:21:07.181Z,46.67
2018-04-12T09:22:09.767Z,46.08
2018-04-12T09:23:12.358Z,40.53
2018-04-12T09:24:14.887Z,39.78
2018-04-12T09:25:17.414Z,35.33
2018-04-12T09:26:20.685Z,39.42
2018-04-12T09:27:23.190Z,40.40
2018-04-12T09:28:25.726Z,38.88
2018-04-12T09:29:28.260Z,41.45
2018-04-12T09:30:30.772Z,38.85
2018-04-12T09:31:33.288Z,41.83
2018-04-12T09:32:35.810Z,39.58
2018-04-12T09:33:38.314Z,39.00
2018-04-12T09:34:40.837Z,44.97
2018-04-12T09:35:43.355Z,37.53
2018-04-12T09:36:45.848Z,43.40
2018-04-12T09:37:48.409Z,39.15
2018-04-12T09:38:50.916Z,39.90
2018-04-12T09:39:53.524Z,36.05
2018-04-12T09:40:56.820Z,39.28
2018-04-12T09:41:59.336Z,38.55
2018-04-12T09:43:01.871Z,37.35
2018-04-12T09:44:04.376Z,38.83
2018-04-12T09:45:06.902Z,40.78
2018-04-12T09:46:09.517Z,44.10
2018-04-12T09:47:12.235Z,36.95
2018-04-12T09:48:15.520Z,32.75
2018-04-12T09:49:18.060Z,39.60
2018-04-12T09:50:20.633Z,37.45
2018-04-12T09:51:23.183Z,35.17
2018-04-12T09:52:25.684Z,35.35
2018-04-12T09:53:28.192Z,35.25
2018-04-12T09:54:30.709Z,34.70
2018-04-12T09:55:33.237Z,41.13
2018-04-12T09:56:35.746Z,40.12
2018-04-12T09:57:38.281Z,33.13
2018-04-12T09:58:40.790Z,36.92
2018-04-12T09:59:43.345Z,34.90
2018-04-12T10:01:00.726Z,37.33
2018-04-12T10:02:03.982Z,39.38
2018-04-12T10:03:12.586Z,40.03
2018-04-12T10:04:16.965Z,42.30
2018-04-12T10:05:25.221Z,33.45
2018-04-12T10:06:34.854Z,34.17
2018-04-12T10:07:42.988Z,37.10
2018-04-12T10:08:51.913Z,33.25
2018-04-12T10:09:54.410Z,38.38
2018-04-12T10:10:56.939Z,37.75
2018-04-12T10:11:59.501Z,31.35
2018-04-12T10:13:02.036Z,37.42
2018-04-12T10:14:04.552Z,33.50
2018-04-12T10:15:07.095Z,38.40
2018-04-12T10:16:10.032Z,38.53
2018-04-12T10:17:12.712Z,35.08
2018-04-12T10:18:15.234Z,37.50
2018-04-12T10:19:17.750Z,38.80
2018-04-12T10:20:20.249Z,41.88
2018-04-12T10:21:22.786Z,35.30
2018-04-12T10:22:25.303Z,36.63
2018-04-12T10:23:27.812Z,33.78
2018-04-12T10:24:31.111Z,38.80
2018-04-12T10:25:33.736Z,36.08
2018-04-12T10:26:36.290Z,38.45
2018-04-12T10:27:38.831Z,34.10
2018-04-12T10:28:41.336Z,37.97
2018-04-12T10:29:43.879Z,42.67
2018-04-12T10:30:46.432Z,35.55
2018-04-12T10:31:49.778Z,38.25
2018-04-12T10:32:52.300Z,36.70
2018-04-12T10:33:54.818Z,38.50
2018-04-12T10:34:57.326Z,37.17
2018-04-12T10:36:00.607Z,37.63
2018-04-12T10:37:03.920Z,35.95
2018-04-12T10:38:06.447Z,38.78
2018-04-12T10:39:09.783Z,34.70
2018-04-12T10:40:12.426Z,33.40
2018-04-12T10:41:15.001Z,37.70
2018-04-12T10:42:17.530Z,39.67
2018-04-12T10:43:20.028Z,37.15
2018-04-12T10:44:23.320Z,37.30
2018-04-12T10:45:25.833Z,33.65
2018-04-12T10:46:28.346Z,39.58
2018-04-12T10:47:30.872Z,36.22
2018-04-12T10:48:33.374Z,32.72
2018-04-12T10:49:35.859Z,36.22
2018-04-12T10:50:38.368Z,32.17
2018-04-12T10:51:41.688Z,33.28
2018-04-12T10:52:44.197Z,34.17
2018-04-12T10:53:46.814Z,34.17
2018-04-12T10:54:49.358Z,39.75
2018-04-12T10:55:51.856Z,32.95
2018-04-12T10:56:54.382Z,34.88
2018-04-12T10:57:56.913Z,32.83
2018-04-12T10:58:59.465Z,37.40
2018-04-12T11:00:01.962Z,39.60
2018-04-12T11:01:04.479Z,36.95
2018-04-12T11:02:07.801Z,35.22
2018-04-12T11:03:10.362Z,31.30
2018-04-12T11:04:13.045Z,36.88
2018-04-12T11:05:15.555Z,35.90
2018-04-12T11:06:18.071Z,34.25
2018-04-12T11:07:21.372Z,35.15
2018-04-12T11:08:23.915Z,35.10
2018-04-12T11:09:26.415Z,39.15
2018-04-12T11:10:28.921Z,33.15
2018-04-12T11:11:31.462Z,37.35
2018-04-12T11:12:33.980Z,33.53
2018-04-12T11:13:36.595Z,34.03
2018-04-12T11:14:39.106Z,37.17
2018-04-12T11:15:41.625Z,35.00
2018-04-12T11:16:44.899Z,34.97
2018-04-12T11:17:47.405Z,35.97
2018-04-12T11:18:49.927Z,33.35
2018-04-12T11:19:52.506Z,33.92
2018-04-12T11:20:55.009Z,44.58
2018-04-12T11:21:57.547Z,40.10
2018-04-12T11:23:00.055Z,41.25
2018-04-12T11:24:02.561Z,35.80
2018-04-12T11:25:05.087Z,39.05
2018-04-12T11:26:07.597Z,39.40
2018-04-12T11:27:11.426Z,34.63
2018-04-12T11:28:13.965Z,34.10
2018-04-12T11:29:16.506Z,42.40
2018-04-12T11:30:19.003Z,41.47
2018-04-12T11:31:21.514Z,38.25
2018-04-12T11:32:24.823Z,37.72
2018-04-12T11:33:28.115Z,37.78
2018-04-12T11:34:30.621Z,43.10
2018-04-12T11:35:33.122Z,41.58
2018-04-12T11:36:35.681Z,45.95
2018-04-12T11:37:38.228Z,46.20
2018-04-12T11:38:40.771Z,36.22
2018-04-12T11:39:43.293Z,37.45
2018-04-12T11:40:45.800Z,36.47
2018-04-12T11:41:49.097Z,35.80
2018-04-12T11:42:51.618Z,40.80
2018-04-12T11:43:54.166Z,35.65
2018-04-12T11:44:56.682Z,39.97
2018-04-12T11:45:59.193Z,37.40
2018-04-12T11:47:01.693Z,33.70
2018-04-12T11:48:04.224Z,36.72
2018-04-12T11:49:06.796Z,40.88
2018-04-12T11:50:09.403Z,40.80
2018-04-12T11:51:12.164Z,46.90
2018-04-12T11:52:14.691Z,42.22
2018-04-12T11:53:17.998Z,45.25
2018-04-12T11:54:21.271Z,37.92
2018-04-12T11:55:24.569Z,39.20
2018-04-12T11:56:27.859Z,40.35
2018-04-12T11:57:30.432Z,40.53
2018-04-12T11:58:33.785Z,48.95
2018-04-12T11:59:36.280Z,45.30
2018-04-12T12:00:39.562Z,41.63
2018-04-12T12:01:42.132Z,41.58
2018-04-12T12:02:44.610Z,44.00
2018-04-12T12:03:47.147Z,43.50
2018-04-12T12:04:49.681Z,40.80
2018-04-12T12:05:52.190Z,40.38
2018-04-12T12:06:54.748Z,41.05
2018-04-12T12:07:57.233Z,39.03
2018-04-12T12:08:59.731Z,36.78
2018-04-12T12:10:02.288Z,35.50
2018-04-12T12:11:04.827Z,40.50
2018-04-12T12:12:07.326Z,46.17
2018-04-12T12:13:09.865Z,38.78
2018-04-12T12:14:12.709Z,40.70
2018-04-12T12:15:15.982Z,47.53
2018-04-12T12:16:19.295Z,42.85
2018-04-12T12:17:21.811Z,44.25
2018-04-12T12:18:24.321Z,41.17
2018-04-12T12:19:27.630Z,51.42
2018-04-12T12:20:30.163Z,45.65
2018-04-12T12:21:32.660Z,47.35
2018-04-12T12:22:35.203Z,46.50
2018-04-12T12:23:38.542Z,46.83
2018-04-12T12:24:41.852Z,43.25
2018-04-12T12:25:44.361Z,40.60
2018-04-12T12:26:47.714Z,48.03
2018-04-12T12:27:50.230Z,42.05
2018-04-12T12:28:53.526Z,44.55
2018-04-12T12:29:56.052Z,45.45
2018-04-12T12:30:58.570Z,44.03
2018-04-12T12:32:01.120Z,47.65
2018-04-12T12:33:04.404Z,47.00
2018-04-12T12:34:06.990Z,40.90
2018-04-12T12:35:10.415Z,43.90
2018-04-12T12:36:13.057Z,46.80
2018-04-12T12:37:16.335Z,45.47
2018-04-12T12:38:19.616Z,45.15
2018-04-12T12:39:22.120Z,52.35
2018-04-12T12:40:24.653Z,45.78
2018-04-12T12:41:27.227Z,53.92
2018-04-12T12:42:29.730Z,47.72
2018-04-12T12:43:32.247Z,48.55
2018-04-12T12:44:34.792Z,42.38
2018-04-12T12:45:37.335Z,42.75
2018-04-12T12:46:40.627Z,42.90
2018-04-12T12:47:43.161Z,46.10
2018-04-12T12:48:46.060Z,50.88
2018-04-12T12:49:49.326Z,50.55
2018-04-12T12:50:51.862Z,44.55
2018-04-12T12:51:54.397Z,46.20
2018-04-12T12:52:57.684Z,49.28
2018-04-12T12:54:00.959Z,45.70
2018-04-12T12:55:04.235Z,50.72
2018-04-12T12:56:07.558Z,46.78
2018-04-12T12:57:10.368Z,46.33
2018-04-12T12:58:13.024Z,44.28
2018-04-12T12:59:15.589Z,51.88
2018-04-12T13:00:18.992Z,50.22
2018-04-12T13:01:21.559Z,47.05
2018-04-12T13:02:24.796Z,49.70
2018-04-12T13:03:27.301Z,49.20
2018-04-12T13:04:29.823Z,48.85
2018-04-12T13:05:32.340Z,51.15
2018-04-12T13:06:35.615Z,48.22
2018-04-12T13:07:38.882Z,52.15
2018-04-12T13:08:41.422Z,47.80
2018-04-12T13:09:43.976Z,45.65
2018-04-12T13:10:46.556Z,47.33
2018-04-12T13:11:49.075Z,48.65
2018-04-12T13:12:51.600Z,45.05
2018-04-12T13:13:54.102Z,51.78
2018-04-12T13:14:56.641Z,54.47
2018-04-12T13:15:59.166Z,48.33
2018-04-12T13:17:01.692Z,50.30
2018-04-12T13:18:04.205Z,55.72
2018-04-12T13:19:06.704Z,50.35
2018-04-12T13:20:09.242Z,61.22
2018-04-12T13:21:12.059Z,45.58
2018-04-12T13:22:14.598Z,51.33
2018-04-12T13:23:17.214Z,49.03
2018-04-12T13:24:19.721Z,47.40
2018-04-12T13:25:22.305Z,52.75
2018-04-12T13:26:24.804Z,54.20